createdAt,value
2023-05-01T00:02:03.663Z,9.95
2023-05-01T00:04:30.196Z,9.96
2023-05-01T00:06:56.717Z,9.75
2023-05-01T00:09:23.191Z,9.71
2023-05-01T00:11:49.705Z,9.80
2023-05-01T00:14:16.213Z,9.82
2023-05-01T00:16:42.810Z,9.85
2023-05-01T00:19:09.320Z,9.81
2023-05-01T00:21:35.811Z,9.82
2023-05-01T00:24:02.333Z,9.71
2023-05-01T00:26:28.837Z,9.74
2023-05-01T00:28:55.325Z,9.76
2023-05-01T00:31:23.840Z,9.72
2023-05-01T00:33:50.363Z,9.69
2023-05-01T00:36:16.848Z,9.64
2023-05-01T00:38:43.352Z,9.60
2023-05-01T00:41:09.865Z,9.55
2023-05-01T00:43:36.402Z,9.55
2023-05-01T00:46:03.033Z,9.54
2023-05-01T00:48:29.830Z,9.51
2023-05-01T00:50:57.196Z,9.51
2023-05-01T00:53:24.001Z,9.48
2023-05-01T00:55:51.180Z,9.42
2023-05-01T00:58:18.123Z,9.29
2023-05-01T01:00:44.727Z,9.22
2023-05-01T01:03:11.205Z,9.05
2023-05-01T01:05:43.003Z,8.68
2023-05-01T01:08:29.180Z,8.56
2023-05-01T01:11:33.736Z,8.67
2023-05-01T01:14:08.174Z,8.81
2023-05-01T01:16:37.499Z,8.74
2023-05-01T01:19:18.133Z,8.64
2023-05-01T01:21:47.860Z,8.49
2023-05-01T01:24:35.966Z,8.54
2023-05-01T01:27:36.516Z,8.68
2023-05-01T01:30:33.456Z,8.78
2023-05-01T01:33:20.149Z,8.72
2023-05-01T01:35:57.624Z,8.66
2023-05-01T01:38:36.245Z,8.69
2023-05-01T01:41:24.185Z,8.69
2023-05-01T01:44:00.945Z,8.69
2023-05-01T01:46:27.950Z,8.66
2023-05-01T01:48:57.835Z,8.60
2023-05-01T01:51:25.923Z,8.53
2023-05-01T01:53:56.041Z,8.47
2023-05-01T01:56:23.730Z,8.44
2023-05-01T01:58:52.114Z,8.44
2023-05-01T02:01:19.943Z,8.42
2023-05-01T02:03:47.786Z,8.35
2023-05-01T02:06:17.604Z,8.31
2023-05-01T02:08:46.975Z,8.34
2023-05-01T02:11:16.149Z,8.30
2023-05-01T02:13:44.197Z,8.28
2023-05-01T02:16:11.946Z,8.22
2023-05-01T02:18:40.290Z,8.13
2023-05-01T02:21:07.337Z,7.83
2023-05-01T02:23:34.072Z,7.65
2023-05-01T02:26:03.142Z,7.72
2023-05-01T02:28:30.189Z,7.73
2023-05-01T02:30:56.768Z,7.81
2023-05-01T02:33:23.379Z,7.88
2023-05-01T02:35:49.913Z,7.89
2023-05-01T02:38:17.000Z,7.83
2023-05-01T02:40:47.040Z,7.81
2023-05-01T02:43:16.324Z,7.84
2023-05-01T02:45:44.796Z,7.84
2023-05-01T02:48:15.750Z,7.84
2023-05-01T02:50:44.705Z,7.86
2023-05-01T02:53:13.321Z,7.79
2023-05-01T02:55:40.190Z,7.75
2023-05-01T02:58:06.684Z,7.73
2023-05-01T03:00:33.207Z,7.74
2023-05-01T03:02:59.724Z,7.70
2023-05-01T03:05:26.292Z,7.63
2023-05-01T03:07:52.847Z,7.58
2023-05-01T03:10:19.496Z,7.47
2023-05-01T03:12:46.014Z,7.37
2023-05-01T03:15:12.576Z,7.16
2023-05-01T03:17:39.184Z,7.21
2023-05-01T03:20:06.470Z,7.34
2023-05-01T03:22:33.066Z,7.39
2023-05-01T03:24:59.807Z,7.45
2023-05-01T03:27:26.265Z,7.47
2023-05-01T03:29:53.442Z,7.43
2023-05-01T03:32:20.196Z,7.40
2023-05-01T03:34:46.777Z,7.37
2023-05-01T03:37:13.311Z,7.35
2023-05-01T03:39:39.793Z,7.37
2023-05-01T03:42:06.261Z,7.39
2023-05-01T03:44:32.936Z,7.39
2023-05-01T03:46:59.457Z,7.40
2023-05-01T03:49:25.968Z,7.42
2023-05-01T03:51:52.464Z,7.44
2023-05-01T03:54:18.958Z,7.45
2023-05-01T03:56:45.432Z,7.49
2023-05-01T03:59:11.935Z,7.52
2023-05-01T04:01:38.496Z,7.56
2023-05-01T04:04:05.134Z,7.68
2023-05-01T04:06:31.760Z,8.04
2023-05-01T04:08:58.932Z,8.55
2023-05-01T04:11:25.426Z,9.00
2023-05-01T04:13:51.934Z,9.51
2023-05-01T04:16:18.514Z,10.10
2023-05-01T04:18:45.238Z,10.51
2023-05-01T04:21:11.794Z,11.11
2023-05-01T04:23:38.315Z,11.56
2023-05-01T04:26:04.875Z,11.93
2023-05-01T04:28:31.396Z,12.39
2023-05-01T04:30:57.969Z,12.63
2023-05-01T04:33:24.560Z,13.04
2023-05-01T04:35:51.080Z,13.43
2023-05-01T04:38:17.621Z,13.77
2023-05-01T04:40:44.104Z,14.09
2023-05-01T04:43:10.646Z,14.22
2023-05-01T04:45:38.466Z,14.59
2023-05-01T04:48:05.179Z,14.78
2023-05-01T04:50:31.716Z,15.04
2023-05-01T04:52:58.216Z,15.41
2023-05-01T04:55:24.872Z,15.62
2023-05-01T04:57:51.372Z,15.74
2023-05-01T05:00:17.950Z,15.65
2023-05-01T05:02:45.831Z,15.87
2023-05-01T05:05:12.394Z,16.13
2023-05-01T05:07:38.885Z,16.29
2023-05-01T05:10:05.907Z,16.79
2023-05-01T05:12:32.428Z,17.00
2023-05-01T05:14:58.940Z,17.72
2023-05-01T05:17:25.433Z,17.42
2023-05-01T05:19:51.978Z,17.64
2023-05-01T05:22:18.544Z,17.96
2023-05-01T05:24:45.014Z,18.23
2023-05-01T05:27:11.547Z,18.30
2023-05-01T05:29:38.061Z,18.37
2023-05-01T05:32:04.746Z,18.81
2023-05-01T05:34:31.268Z,18.83
2023-05-01T05:36:57.751Z,18.76
2023-05-01T05:39:24.235Z,19.18
2023-05-01T05:41:50.930Z,19.73
2023-05-01T05:44:17.483Z,20.25
2023-05-01T05:46:43.974Z,20.53
2023-05-01T05:49:10.553Z,20.85
2023-05-01T05:51:37.059Z,20.66
2023-05-01T05:54:03.613Z,20.66
2023-05-01T05:56:30.125Z,20.08
2023-05-01T05:58:56.687Z,19.59
2023-05-01T06:01:23.158Z,19.52
2023-05-01T06:03:49.711Z,19.81
2023-05-01T06:06:16.418Z,20.53
2023-05-01T06:08:42.771Z,20.26
2023-05-01T06:11:09.542Z,20.41
2023-05-01T06:13:36.107Z,20.31
2023-05-01T06:16:02.708Z,20.69
2023-05-01T06:18:29.211Z,20.50
2023-05-01T06:20:55.949Z,20.65
2023-05-01T06:23:22.532Z,20.86
2023-05-01T06:25:49.075Z,20.89
2023-05-01T06:28:15.660Z,21.35
2023-05-01T06:30:42.019Z,21.96
2023-05-01T06:33:08.775Z,22.36
2023-05-01T06:35:35.386Z,21.62
2023-05-01T06:38:01.749Z,21.78
2023-05-01T06:40:28.314Z,21.74
2023-05-01T06:42:54.737Z,22.69
2023-05-01T06:45:21.285Z,22.84
2023-05-01T06:47:47.692Z,23.21
2023-05-01T06:50:14.332Z,23.32
2023-05-01T06:52:41.974Z,23.11
2023-05-01T06:55:08.931Z,22.76
2023-05-01T06:57:35.417Z,23.60
2023-05-01T07:00:01.894Z,24.01
2023-05-01T07:02:28.444Z,24.50
2023-05-01T07:04:54.972Z,24.83
2023-05-01T07:07:21.320Z,24.35
2023-05-01T07:09:47.834Z,24.05
2023-05-01T07:12:14.271Z,24.12
2023-05-01T07:14:40.741Z,24.77
2023-05-01T07:17:07.431Z,23.67
2023-05-01T07:19:33.954Z,23.87
2023-05-01T07:22:00.677Z,24.60
2023-05-01T07:24:27.220Z,24.72
2023-05-01T07:26:53.705Z,24.85
2023-05-01T07:29:20.173Z,25.27
2023-05-01T07:31:46.734Z,26.03
2023-05-01T07:34:13.309Z,25.87
2023-05-01T07:36:39.867Z,26.40
2023-05-01T07:39:06.354Z,25.38
2023-05-01T07:41:32.835Z,25.80
2023-05-01T07:43:59.510Z,25.83
2023-05-01T07:46:26.194Z,26.00
2023-05-01T07:48:52.908Z,25.89
2023-05-01T07:51:19.465Z,26.56
2023-05-01T07:53:45.974Z,26.20
2023-05-01T07:56:12.469Z,26.09
2023-05-01T07:58:38.962Z,26.52
2023-05-01T08:01:06.074Z,26.50
2023-05-01T08:03:32.800Z,25.60
2023-05-01T08:05:59.485Z,26.46
2023-05-01T08:08:26.032Z,25.99
2023-05-01T08:10:52.708Z,26.18
2023-05-01T08:13:19.283Z,25.58
2023-05-01T08:15:48.751Z,25.27
2023-05-01T08:18:15.572Z,26.40
2023-05-01T08:20:42.062Z,26.95
2023-05-01T08:23:08.553Z,26.47
2023-05-01T08:25:35.025Z,26.50
2023-05-01T08:28:01.644Z,26.13
2023-05-01T08:30:28.185Z,26.59
2023-05-01T08:32:54.732Z,26.80
2023-05-01T08:35:21.279Z,26.66
2023-05-01T08:37:47.792Z,26.93
2023-05-01T08:40:15.474Z,26.58
2023-05-01T08:42:42.746Z,26.01
2023-05-01T08:45:10.464Z,25.91
2023-05-01T08:47:39.091Z,24.85
2023-05-01T08:50:09.969Z,25.10
2023-05-01T08:52:41.281Z,24.85
2023-05-01T08:55:13.245Z,25.12
2023-05-01T08:57:44.258Z,25.41
2023-05-01T09:00:17.630Z,24.51
2023-05-01T09:02:46.270Z,24.37
2023-05-01T09:05:14.586Z,25.31
2023-05-01T09:07:41.166Z,25.14
2023-05-01T09:10:08.026Z,24.21
2023-05-01T09:12:34.692Z,24.42
2023-05-01T09:15:03.210Z,24.82
2023-05-01T09:17:31.994Z,25.92
2023-05-01T09:20:01.666Z,25.95
2023-05-01T09:22:31.323Z,24.64
2023-05-01T09:24:57.808Z,24.87
2023-05-01T09:27:24.935Z,25.85
2023-05-01T09:29:51.442Z,26.47
2023-05-01T09:32:19.400Z,26.36
2023-05-01T09:34:49.895Z,26.51
2023-05-01T09:37:33.449Z,25.75
2023-05-01T09:40:15.704Z,26.45
2023-05-01T09:42:50.966Z,26.71
2023-05-01T09:45:18.634Z,26.29
2023-05-01T09:47:46.735Z,26.34
2023-05-01T09:50:34.337Z,25.23
2023-05-01T09:53:05.308Z,25.15
2023-05-01T09:55:32.473Z,24.03
2023-05-01T09:57:59.182Z,23.65
2023-05-01T10:00:26.105Z,24.65
2023-05-01T10:02:53.133Z,24.07
2023-05-01T10:05:19.891Z,25.31
2023-05-01T10:08:06.665Z,25.78
2023-05-01T10:10:33.233Z,26.51
2023-05-01T10:13:16.770Z,26.88
2023-05-01T10:15:45.076Z,26.26
2023-05-01T10:18:11.817Z,25.28
2023-05-01T10:20:38.404Z,25.55
2023-05-01T10:23:04.955Z,25.84
2023-05-01T10:25:32.382Z,25.00
2023-05-01T10:27:59.352Z,25.77
2023-05-01T10:30:26.514Z,25.49
2023-05-01T10:32:53.241Z,24.55
2023-05-01T10:35:26.396Z,24.67
2023-05-01T10:38:05.173Z,24.65
2023-05-01T10:40:44.758Z,24.92
2023-05-01T10:43:14.352Z,24.98
2023-05-01T10:45:40.872Z,25.89
2023-05-01T10:48:07.455Z,25.59
2023-05-01T10:50:34.524Z,25.87
2023-05-01T10:53:09.971Z,27.20
2023-05-01T10:55:46.819Z,26.56
2023-05-01T10:58:14.826Z,25.74
2023-05-01T11:00:41.476Z,24.62
2023-05-01T11:03:23.142Z,24.47
2023-05-01T11:06:01.766Z,25.06
2023-05-01T11:08:38.782Z,24.59
2023-05-01T11:11:20.366Z,24.70
2023-05-01T11:14:12.902Z,25.42
2023-05-01T11:16:39.398Z,25.85
2023-05-01T11:19:06.857Z,26.28
2023-05-01T11:21:35.200Z,26.43
2023-05-01T11:24:02.416Z,26.89
2023-05-01T11:26:31.217Z,27.05
2023-05-01T11:29:00.687Z,25.54
2023-05-01T11:31:28.118Z,23.81
2023-05-01T11:33:58.744Z,23.64
2023-05-01T11:36:25.973Z,24.35
2023-05-01T11:38:54.311Z,24.46
2023-05-01T11:41:21.530Z,25.25
2023-05-01T11:43:58.631Z,25.25
2023-05-01T11:46:30.094Z,25.24
2023-05-01T11:48:58.263Z,25.86
2023-05-01T11:51:26.004Z,25.20
2023-05-01T11:54:02.151Z,24.80
2023-05-01T11:56:29.382Z,24.74
2023-05-01T11:58:57.250Z,24.13
2023-05-01T12:01:37.372Z,25.16
2023-05-01T12:04:04.608Z,24.50
2023-05-01T12:06:39.746Z,24.28
2023-05-01T12:09:07.787Z,24.33
2023-05-01T12:11:35.461Z,25.03
2023-05-01T12:14:02.468Z,25.13
2023-05-01T12:16:30.158Z,24.63
2023-05-01T12:18:57.088Z,25.60
2023-05-01T12:21:23.638Z,25.19
2023-05-01T12:23:50.162Z,24.47
2023-05-01T12:26:22.380Z,25.03
2023-05-01T12:29:06.126Z,25.02
2023-05-01T12:31:33.327Z,25.15
2023-05-01T12:34:01.006Z,24.35
2023-05-01T12:36:29.565Z,24.68
2023-05-01T12:39:01.826Z,24.75
2023-05-01T12:41:50.980Z,25.74
2023-05-01T12:44:26.414Z,25.77
2023-05-01T12:47:03.777Z,26.17
2023-05-01T12:49:31.662Z,25.13
2023-05-01T12:52:00.156Z,24.65
2023-05-01T12:54:30.537Z,25.03
2023-05-01T12:57:13.296Z,25.36
2023-05-01T12:59:41.462Z,24.89
2023-05-01T13:02:13.168Z,24.62
2023-05-01T13:04:40.410Z,24.19
2023-05-01T13:07:14.645Z,24.16
2023-05-01T13:09:52.302Z,24.15
2023-05-01T13:12:18.960Z,24.32
2023-05-01T13:14:46.315Z,24.51
2023-05-01T13:17:13.222Z,24.45
2023-05-01T13:19:39.856Z,24.55
2023-05-01T13:22:06.551Z,24.36
2023-05-01T13:24:40.897Z,24.36
2023-05-01T13:27:13.817Z,24.50
2023-05-01T13:29:40.477Z,24.87
2023-05-01T13:32:10.941Z,24.87
2023-05-01T13:34:42.305Z,24.69
2023-05-01T13:37:10.898Z,24.67
2023-05-01T13:39:40.945Z,24.42
2023-05-01T13:42:07.436Z,24.17
2023-05-01T13:44:42.372Z,23.72
2023-05-01T13:47:08.916Z,23.85
2023-05-01T13:49:35.408Z,23.84
2023-05-01T13:52:01.930Z,24.71
2023-05-01T13:54:28.445Z,24.42
2023-05-01T13:56:54.800Z,23.93
2023-05-01T13:59:21.475Z,23.56
2023-05-01T14:01:48.006Z,23.47
2023-05-01T14:04:18.562Z,23.46
2023-05-01T14:06:45.700Z,23.65
2023-05-01T14:09:12.405Z,23.66
2023-05-01T14:11:43.525Z,23.63
2023-05-01T14:14:10.162Z,23.94
2023-05-01T14:16:40.605Z,23.96
2023-05-01T14:19:07.124Z,24.09
2023-05-01T14:21:38.644Z,23.65
2023-05-01T14:24:07.215Z,23.24
2023-05-01T14:26:35.271Z,23.38
2023-05-01T14:29:03.603Z,23.45
2023-05-01T14:31:30.641Z,23.98
2023-05-01T14:34:05.879Z,23.86
2023-05-01T14:36:32.480Z,23.58
2023-05-01T14:39:00.760Z,23.74
2023-05-01T14:41:27.479Z,23.49
2023-05-01T14:43:53.976Z,23.45
2023-05-01T14:46:31.311Z,23.46
2023-05-01T14:48:59.371Z,23.04
2023-05-01T14:51:26.098Z,23.18
2023-05-01T14:53:53.297Z,23.53
2023-05-01T14:56:19.879Z,23.40
2023-05-01T14:58:46.283Z,23.28
2023-05-01T15:01:13.811Z,23.08
2023-05-01T15:03:40.637Z,23.15
2023-05-01T15:06:08.112Z,23.03
2023-05-01T15:08:35.189Z,23.37
2023-05-01T15:11:01.804Z,23.39
2023-05-01T15:13:28.288Z,23.34
2023-05-01T15:15:54.951Z,23.44
2023-05-01T15:18:22.660Z,23.21
2023-05-01T15:20:49.325Z,22.99
2023-05-01T15:23:15.813Z,22.90
2023-05-01T15:25:42.290Z,22.67
2023-05-01T15:28:08.768Z,22.55
2023-05-01T15:30:35.310Z,22.47
2023-05-01T15:33:01.715Z,22.61
2023-05-01T15:35:28.258Z,22.71
2023-05-01T15:37:54.740Z,22.69
2023-05-01T15:40:21.264Z,22.56
2023-05-01T15:42:47.774Z,22.62
2023-05-01T15:45:14.571Z,22.82
2023-05-01T15:47:41.200Z,22.63
2023-05-01T15:50:10.148Z,22.55
2023-05-01T15:52:36.676Z,22.54
2023-05-01T15:55:03.284Z,22.52
2023-05-01T15:57:30.193Z,22.49
2023-05-01T15:59:56.878Z,22.35
2023-05-01T16:02:23.676Z,22.31
2023-05-01T16:04:50.207Z,22.23
2023-05-01T16:07:16.753Z,22.26
2023-05-01T16:09:43.341Z,22.19
2023-05-01T16:12:09.723Z,22.06
2023-05-01T16:14:39.388Z,22.04
2023-05-01T16:17:06.006Z,21.95
2023-05-01T16:19:32.512Z,21.87
2023-05-01T16:22:03.611Z,21.93
2023-05-01T16:24:33.907Z,21.80
2023-05-01T16:27:00.802Z,21.71
2023-05-01T16:29:27.299Z,21.68
2023-05-01T16:31:54.058Z,21.65
2023-05-01T16:34:25.190Z,21.56
2023-05-01T16:36:51.778Z,21.45
2023-05-01T16:39:19.605Z,21.45
2023-05-01T16:41:48.756Z,21.40
2023-05-01T16:44:16.994Z,21.27
2023-05-01T16:46:49.813Z,21.28
2023-05-01T16:49:17.489Z,21.26
2023-05-01T16:51:44.013Z,21.15
2023-05-01T16:54:10.730Z,20.99
2023-05-01T16:56:38.718Z,20.93
2023-05-01T16:59:05.292Z,20.89
2023-05-01T17:01:31.757Z,20.92
2023-05-01T17:03:58.365Z,20.86
2023-05-01T17:06:24.868Z,20.85
2023-05-01T17:08:51.442Z,20.63
2023-05-01T17:11:18.045Z,20.53
2023-05-01T17:13:44.399Z,20.46
2023-05-01T17:16:10.947Z,20.41
2023-05-01T17:18:37.492Z,20.37
2023-05-01T17:21:03.974Z,20.29
2023-05-01T17:23:30.488Z,20.21
2023-05-01T17:25:56.984Z,20.10
2023-05-01T17:28:23.531Z,20.03
2023-05-01T17:30:50.373Z,19.99
2023-05-01T17:33:16.960Z,19.90
2023-05-01T17:35:43.795Z,19.74
2023-05-01T17:38:10.301Z,19.57
2023-05-01T17:40:36.866Z,19.51
2023-05-01T17:43:03.471Z,19.46
2023-05-01T17:45:29.995Z,19.37
2023-05-01T17:47:56.528Z,19.23
2023-05-01T17:50:24.398Z,19.10
2023-05-01T17:52:50.919Z,18.96
2023-05-01T17:55:18.394Z,18.88
2023-05-01T17:57:46.345Z,18.80
2023-05-01T18:00:13.358Z,18.69
2023-05-01T18:02:40.004Z,18.61
2023-05-01T18:05:06.528Z,18.58
2023-05-01T18:07:33.037Z,18.57
2023-05-01T18:09:59.944Z,18.44
2023-05-01T18:12:26.752Z,18.40
2023-05-01T18:14:53.752Z,18.35
2023-05-01T18:17:23.574Z,18.29
2023-05-01T18:19:50.422Z,18.12
2023-05-01T18:22:16.841Z,18.04
2023-05-01T18:24:43.445Z,18.01
2023-05-01T18:27:10.002Z,17.92
2023-05-01T18:29:36.550Z,17.91
2023-05-01T18:32:03.445Z,17.92
2023-05-01T18:34:30.059Z,17.90
2023-05-01T18:36:56.621Z,17.88
2023-05-01T18:39:23.098Z,17.74
2023-05-01T18:41:50.403Z,17.68
2023-05-01T18:44:17.849Z,17.48
2023-05-01T18:46:44.700Z,17.48
2023-05-01T18:49:11.492Z,17.45
2023-05-01T18:51:37.995Z,17.29
2023-05-01T18:54:05.016Z,17.23
2023-05-01T18:56:31.690Z,17.30
2023-05-01T18:58:58.177Z,17.39
2023-05-01T19:01:24.770Z,17.38
2023-05-01T19:03:51.283Z,17.43
2023-05-01T19:06:17.791Z,17.47
2023-05-01T19:08:44.341Z,17.40
2023-05-01T19:11:10.838Z,17.40
2023-05-01T19:13:37.483Z,17.37
2023-05-01T19:16:04.185Z,17.29
2023-05-01T19:18:30.769Z,17.23
2023-05-01T19:20:57.312Z,17.13
2023-05-01T19:23:24.000Z,17.04
2023-05-01T19:25:50.540Z,16.93
2023-05-01T19:28:17.066Z,16.85
2023-05-01T19:30:43.619Z,16.84
2023-05-01T19:33:10.200Z,16.70
2023-05-01T19:35:36.767Z,16.57
2023-05-01T19:38:03.300Z,16.51
2023-05-01T19:40:29.838Z,16.49
2023-05-01T19:42:56.353Z,16.67
2023-05-01T19:45:22.826Z,16.69
2023-05-01T19:47:49.337Z,16.68
2023-05-01T19:50:17.623Z,16.66
2023-05-01T19:52:44.098Z,16.58
2023-05-01T19:55:10.642Z,16.55
2023-05-01T19:57:37.200Z,16.51
2023-05-01T20:00:04.884Z,16.48
2023-05-01T20:02:31.425Z,16.41
2023-05-01T20:04:58.214Z,16.36
2023-05-01T20:07:26.146Z,16.43
2023-05-01T20:09:52.646Z,16.45
2023-05-01T20:12:19.109Z,16.40
2023-05-01T20:14:45.617Z,16.30
2023-05-01T20:17:12.129Z,16.25
2023-05-01T20:19:39.572Z,16.22
2023-05-01T20:22:06.554Z,16.17
2023-05-01T20:24:33.081Z,16.12
2023-05-01T20:26:59.564Z,16.06
2023-05-01T20:29:26.572Z,15.98
2023-05-01T20:31:53.064Z,15.91
2023-05-01T20:34:20.246Z,15.84
2023-05-01T20:36:46.936Z,15.81
2023-05-01T20:39:13.476Z,15.78
2023-05-01T20:41:40.020Z,15.74
2023-05-01T20:44:06.658Z,15.72
2023-05-01T20:46:33.186Z,15.69
2023-05-01T20:48:59.705Z,15.54
2023-05-01T20:51:26.250Z,15.50
2023-05-01T20:53:53.234Z,15.41
2023-05-01T20:56:19.881Z,15.40
2023-05-01T20:58:46.416Z,15.38
2023-05-01T21:01:12.969Z,15.29
2023-05-01T21:03:39.553Z,15.24
2023-05-01T21:06:06.213Z,15.20
2023-05-01T21:08:33.689Z,15.21
2023-05-01T21:11:01.413Z,15.21
2023-05-01T21:13:28.513Z,15.24
2023-05-01T21:15:55.102Z,15.18
2023-05-01T21:18:21.633Z,15.18
2023-05-01T21:20:48.544Z,15.15
2023-05-01T21:23:16.076Z,15.14
2023-05-01T21:25:43.248Z,15.09
2023-05-01T21:28:13.746Z,15.08
2023-05-01T21:30:40.800Z,15.05
2023-05-01T21:33:12.063Z,15.05
2023-05-01T21:35:41.835Z,15.08
2023-05-01T21:38:08.766Z,15.10
2023-05-01T21:40:40.148Z,15.08
2023-05-01T21:43:07.504Z,15.20
2023-05-01T21:45:34.105Z,15.53
2023-05-01T21:48:00.650Z,15.50
2023-05-01T21:50:35.810Z,15.19
2023-05-01T21:53:02.391Z,14.88
2023-05-01T21:55:29.792Z,14.74
2023-05-01T21:57:58.118Z,14.63
2023-05-01T22:00:24.738Z,14.61
2023-05-01T22:02:51.544Z,14.59
2023-05-01T22:05:20.534Z,14.57
2023-05-01T22:07:47.145Z,14.51
2023-05-01T22:10:16.056Z,14.52
2023-05-01T22:12:43.854Z,14.56
2023-05-01T22:15:11.982Z,14.73
2023-05-01T22:17:39.409Z,15.04
2023-05-01T22:20:07.228Z,15.29
2023-05-01T22:22:38.662Z,15.49
2023-05-01T22:25:05.933Z,15.73
2023-05-01T22:27:32.399Z,15.78
2023-05-01T22:29:59.379Z,15.87
2023-05-01T22:32:26.311Z,15.73
2023-05-01T22:34:52.874Z,15.74
2023-05-01T22:37:19.451Z,15.70
2023-05-01T22:39:46.058Z,15.69
2023-05-01T22:42:12.636Z,15.58
2023-05-01T22:44:39.158Z,15.62
2023-05-01T22:47:05.639Z,15.52
2023-05-01T22:49:32.178Z,15.42
2023-05-01T22:51:58.775Z,15.32
2023-05-01T22:54:25.593Z,15.14
2023-05-01T22:56:52.096Z,15.08
2023-05-01T22:59:19.390Z,15.03
2023-05-01T23:01:46.140Z,14.99
2023-05-01T23:04:13.474Z,14.94
2023-05-01T23:06:40.269Z,14.95
2023-05-01T23:09:07.185Z,14.85
2023-05-01T23:11:34.795Z,14.71
2023-05-01T23:14:01.725Z,14.60
2023-05-01T23:16:36.196Z,14.46
2023-05-01T23:19:03.459Z,14.33
2023-05-01T23:21:29.797Z,14.21
2023-05-01T23:23:56.384Z,14.12
2023-05-01T23:26:26.100Z,14.06
2023-05-01T23:28:53.552Z,13.99
2023-05-01T23:31:25.308Z,13.94
2023-05-01T23:33:52.262Z,13.82
2023-05-01T23:36:20.528Z,13.63
2023-05-01T23:38:47.455Z,13.49
2023-05-01T23:41:14.625Z,13.37
2023-05-01T23:43:41.401Z,13.32
2023-05-01T23:46:08.200Z,13.31
2023-05-01T23:48:35.051Z,13.17
2023-05-01T23:51:02.480Z,13.15
2023-05-01T23:53:29.041Z,13.11
2023-05-01T23:55:55.515Z,13.10
2023-05-01T23:58:22.837Z,13.07
